Terminal Aerodrome Forecast
Issued by NWS Burlington, VT

Home | Current Version | Previous Version | Text Only | Print | Product List | Glossary On
Versions: 1 2 3 4 5 6 7 8 9 10 11 12 13 14 15 16 17 18
000
FTUS41 KBTV 171733
TAFBTV
TAF
KBTV 171733Z 1718/1818 33015G21KT P6SM BKN025
      TEMPO 1718/1719 SCT025
     FM171900 33014G20KT P6SM FEW025
     FM172300 32008KT P6SM SKC
     FM180200 VRB03KT P6SM SKC
     FM181500 17007KT P6SM SCT120
     FM181700 19009G16KT P6SM BKN110=

USA.gov is the U.S. government's official web portal to all federal, state and local government web resources and services.